sensor_id;sensor_type;location;lat;lon;timestamp;temperature;humidity
75719;DHT22;64340;48.534;-3.036;2022-12-18T00:01:00;13.90;48.40
75719;DHT22;64340;48.534;-3.036;2022-12-18T00:03:25;13.80;48.50
75719;DHT22;64340;48.534;-3.036;2022-12-18T00:05:51;13.70;48.20
75719;DHT22;64340;48.534;-3.036;2022-12-18T00:08:17;13.70;48.10
75719;DHT22;64340;48.534;-3.036;2022-12-18T00:10:43;13.70;48.00
75719;DHT22;64340;48.534;-3.036;2022-12-18T00:13:09;13.70;48.00
75719;DHT22;64340;48.534;-3.036;2022-12-18T00:15:35;13.70;48.00
75719;DHT22;64340;48.534;-3.036;2022-12-18T00:18:01;13.60;48.00
75719;DHT22;64340;48.534;-3.036;2022-12-18T00:20:26;13.60;48.10
75719;DHT22;64340;48.534;-3.036;2022-12-18T00:22:52;13.60;48.20
75719;DHT22;64340;48.534;-3.036;2022-12-18T00:25:18;13.60;48.20
75719;DHT22;64340;48.534;-3.036;2022-12-18T00:27:44;13.60;48.20
75719;DHT22;64340;48.534;-3.036;2022-12-18T00:30:09;13.60;48.10
75719;DHT22;64340;48.534;-3.036;2022-12-18T00:32:35;13.60;47.90
75719;DHT22;64340;48.534;-3.036;2022-12-18T00:35:01;13.50;48.00
75719;DHT22;64340;48.534;-3.036;2022-12-18T00:37:27;13.50;47.90
75719;DHT22;64340;48.534;-3.036;2022-12-18T00:39:52;13.50;48.00
75719;DHT22;64340;48.534;-3.036;2022-12-18T00:42:18;13.50;48.10
75719;DHT22;64340;48.534;-3.036;2022-12-18T00:45:02;13.50;48.10
75719;DHT22;64340;48.534;-3.036;2022-12-18T00:47:27;13.50;48.00
75719;DHT22;64340;48.534;-3.036;2022-12-18T00:49:53;13.50;48.10
75719;DHT22;64340;48.534;-3.036;2022-12-18T00:52:19;13.40;48.00
75719;DHT22;64340;48.534;-3.036;2022-12-18T00:54:44;13.30;47.90
75719;DHT22;64340;48.534;-3.036;2022-12-18T00:57:10;13.30;47.90
75719;DHT22;64340;48.534;-3.036;2022-12-18T00:59:36;13.30;47.90
75719;DHT22;64340;48.534;-3.036;2022-12-18T01:02:01;13.30;47.90
75719;DHT22;64340;48.534;-3.036;2022-12-18T01:04:27;13.30;47.80
75719;DHT22;64340;48.534;-3.036;2022-12-18T01:06:53;13.30;47.70
75719;DHT22;64340;48.534;-3.036;2022-12-18T01:09:19;13.30;47.80
75719;DHT22;64340;48.534;-3.036;2022-12-18T01:11:44;13.20;47.80
75719;DHT22;64340;48.534;-3.036;2022-12-18T01:14:10;13.10;47.70
75719;DHT22;64340;48.534;-3.036;2022-12-18T01:16:36;13.20;47.70
75719;DHT22;64340;48.534;-3.036;2022-12-18T01:19:01;13.10;47.70
75719;DHT22;64340;48.534;-3.036;2022-12-18T01:21:27;13.10;47.70
75719;DHT22;64340;48.534;-3.036;2022-12-18T01:23:53;13.10;47.70
75719;DHT22;64340;48.534;-3.036;2022-12-18T01:26:19;13.10;47.70
75719;DHT22;64340;48.534;-3.036;2022-12-18T01:28:45;13.00;47.90
75719;DHT22;64340;48.534;-3.036;2022-12-18T01:31:15;13.00;47.90
75719;DHT22;64340;48.534;-3.036;2022-12-18T01:33:41;13.00;47.90
75719;DHT22;64340;48.534;-3.036;2022-12-18T01:36:07;13.00;48.00
75719;DHT22;64340;48.534;-3.036;2022-12-18T01:38:32;13.00;47.90
75719;DHT22;64340;48.534;-3.036;2022-12-18T01:40:58;13.00;47.90
75719;DHT22;64340;48.534;-3.036;2022-12-18T01:43:40;12.90;47.90
75719;DHT22;64340;48.534;-3.036;2022-12-18T01:46:06;12.90;47.90
75719;DHT22;64340;48.534;-3.036;2022-12-18T01:48:32;12.90;48.00
75719;DHT22;64340;48.534;-3.036;2022-12-18T01:51:00;12.90;47.90
75719;DHT22;64340;48.534;-3.036;2022-12-18T01:53:26;12.80;47.90
75719;DHT22;64340;48.534;-3.036;2022-12-18T01:55:55;12.80;47.90
75719;DHT22;64340;48.534;-3.036;2022-12-18T01:58:23;12.80;47.80
75719;DHT22;64340;48.534;-3.036;2022-12-18T02:00:49;12.80;47.80
75719;DHT22;64340;48.534;-3.036;2022-12-18T02:03:15;12.80;47.80
75719;DHT22;64340;48.534;-3.036;2022-12-18T02:05:59;12.80;47.80
75719;DHT22;64340;48.534;-3.036;2022-12-18T02:08:28;12.70;47.80
75719;DHT22;64340;48.534;-3.036;2022-12-18T02:10:59;12.70;47.80
75719;DHT22;64340;48.534;-3.036;2022-12-18T02:13:32;12.70;47.80
75719;DHT22;64340;48.534;-3.036;2022-12-18T02:18:37;12.70;47.80
75719;DHT22;64340;48.534;-3.036;2022-12-18T02:21:17;12.60;47.80
75719;DHT22;64340;48.534;-3.036;2022-12-18T02:28:41;12.50;47.80
75719;DHT22;64340;48.534;-3.036;2022-12-18T02:31:11;12.50;47.80
75719;DHT22;64340;48.534;-3.036;2022-12-18T02:33:39;12.50;47.80
75719;DHT22;64340;48.534;-3.036;2022-12-18T02:36:05;12.50;47.80
75719;DHT22;64340;48.534;-3.036;2022-12-18T02:38:32;12.50;47.80
75719;DHT22;64340;48.534;-3.036;2022-12-18T02:40:58;12.50;47.80
75719;DHT22;64340;48.534;-3.036;2022-12-18T02:43:24;12.50;47.80
75719;DHT22;64340;48.534;-3.036;2022-12-18T02:45:57;12.50;47.90
75719;DHT22;64340;48.534;-3.036;2022-12-18T02:48:24;12.40;47.80
75719;DHT22;64340;48.534;-3.036;2022-12-18T02:50:54;12.40;47.90
75719;DHT22;64340;48.534;-3.036;2022-12-18T02:53:28;12.40;47.90
75719;DHT22;64340;48.534;-3.036;2022-12-18T02:56:09;12.30;47.90
75719;DHT22;64340;48.534;-3.036;2022-12-18T03:03:33;12.30;47.90
75719;DHT22;64340;48.534;-3.036;2022-12-18T03:06:08;12.30;47.90
75719;DHT22;64340;48.534;-3.036;2022-12-18T03:08:56;12.20;47.90
75719;DHT22;64340;48.534;-3.036;2022-12-18T03:11:22;12.30;47.90
75719;DHT22;64340;48.534;-3.036;2022-12-18T03:14:08;12.20;47.90
75719;DHT22;64340;48.534;-3.036;2022-12-18T03:16:34;12.20;48.00
75719;DHT22;64340;48.534;-3.036;2022-12-18T03:19:03;12.20;47.90
75719;DHT22;64340;48.534;-3.036;2022-12-18T03:21:30;12.20;47.90
75719;DHT22;64340;48.534;-3.036;2022-12-18T03:23:57;12.10;48.00
75719;DHT22;64340;48.534;-3.036;2022-12-18T03:26:24;12.10;48.00
75719;DHT22;64340;48.534;-3.036;2022-12-18T03:28:51;12.10;47.90
75719;DHT22;64340;48.534;-3.036;2022-12-18T03:31:18;12.10;47.90
75719;DHT22;64340;48.534;-3.036;2022-12-18T03:33:46;12.10;47.90
75719;DHT22;64340;48.534;-3.036;2022-12-18T03:36:12;12.00;47.90
75719;DHT22;64340;48.534;-3.036;2022-12-18T03:38:38;12.00;48.00
75719;DHT22;64340;48.534;-3.036;2022-12-18T03:41:21;12.00;48.00
75719;DHT22;64340;48.534;-3.036;2022-12-18T03:49:25;12.00;48.00
75719;DHT22;64340;48.534;-3.036;2022-12-18T03:52:02;12.00;48.10
75719;DHT22;64340;48.534;-3.036;2022-12-18T03:54:28;12.00;48.00
75719;DHT22;64340;48.534;-3.036;2022-12-18T03:57:06;11.90;48.00
75719;DHT22;64340;48.534;-3.036;2022-12-18T03:59:32;11.90;48.00
75719;DHT22;64340;48.534;-3.036;2022-12-18T04:01:58;11.90;48.00
75719;DHT22;64340;48.534;-3.036;2022-12-18T04:04:24;11.90;48.10
75719;DHT22;64340;48.534;-3.036;2022-12-18T04:06:52;11.90;48.10
75719;DHT22;64340;48.534;-3.036;2022-12-18T04:09:18;11.90;48.00
75719;DHT22;64340;48.534;-3.036;2022-12-18T04:11:44;11.90;48.20
75719;DHT22;64340;48.534;-3.036;2022-12-18T04:14:11;11.90;48.10
75719;DHT22;64340;48.534;-3.036;2022-12-18T04:16:36;11.90;48.10
75719;DHT22;64340;48.534;-3.036;2022-12-18T04:19:02;11.90;48.20
75719;DHT22;64340;48.534;-3.036;2022-12-18T04:21:28;11.80;48.20
75719;DHT22;64340;48.534;-3.036;2022-12-18T04:23:53;11.80;48.20
75719;DHT22;64340;48.534;-3.036;2022-12-18T04:26:19;11.70;48.20
75719;DHT22;64340;48.534;-3.036;2022-12-18T04:28:45;11.80;48.20
75719;DHT22;64340;48.534;-3.036;2022-12-18T04:31:12;11.70;48.20
75719;DHT22;64340;48.534;-3.036;2022-12-18T04:33:38;11.70;48.20
75719;DHT22;64340;48.534;-3.036;2022-12-18T04:36:03;11.70;48.20
75719;DHT22;64340;48.534;-3.036;2022-12-18T04:38:29;11.70;48.20
75719;DHT22;64340;48.534;-3.036;2022-12-18T04:40:55;11.70;48.30
75719;DHT22;64340;48.534;-3.036;2022-12-18T04:43:20;11.70;48.30
75719;DHT22;64340;48.534;-3.036;2022-12-18T04:45:46;11.70;48.30
75719;DHT22;64340;48.534;-3.036;2022-12-18T04:48:11;11.70;48.30
75719;DHT22;64340;48.534;-3.036;2022-12-18T04:50:37;11.60;48.30
75719;DHT22;64340;48.534;-3.036;2022-12-18T04:53:03;11.60;48.40
75719;DHT22;64340;48.534;-3.036;2022-12-18T04:55:28;11.60;48.30
75719;DHT22;64340;48.534;-3.036;2022-12-18T04:57:54;11.60;48.40
75719;DHT22;64340;48.534;-3.036;2022-12-18T05:00:20;11.60;48.30
75719;DHT22;64340;48.534;-3.036;2022-12-18T05:02:46;11.60;48.40
75719;DHT22;64340;48.534;-3.036;2022-12-18T05:05:11;11.50;48.40
75719;DHT22;64340;48.534;-3.036;2022-12-18T05:07:37;11.50;48.40
75719;DHT22;64340;48.534;-3.036;2022-12-18T05:10:02;11.50;48.40
75719;DHT22;64340;48.534;-3.036;2022-12-18T05:12:28;11.50;48.50
75719;DHT22;64340;48.534;-3.036;2022-12-18T05:14:54;11.50;48.50
75719;DHT22;64340;48.534;-3.036;2022-12-18T05:17:19;11.50;48.40
75719;DHT22;64340;48.534;-3.036;2022-12-18T05:19:45;11.50;48.50
75719;DHT22;64340;48.534;-3.036;2022-12-18T05:22:11;11.50;48.50
75719;DHT22;64340;48.534;-3.036;2022-12-18T05:24:37;11.50;48.60
75719;DHT22;64340;48.534;-3.036;2022-12-18T05:27:02;11.50;48.50
75719;DHT22;64340;48.534;-3.036;2022-12-18T05:29:28;11.50;48.50
75719;DHT22;64340;48.534;-3.036;2022-12-18T05:31:54;11.50;48.60
75719;DHT22;64340;48.534;-3.036;2022-12-18T05:34:19;11.40;48.60
75719;DHT22;64340;48.534;-3.036;2022-12-18T05:36:45;11.40;48.60
75719;DHT22;64340;48.534;-3.036;2022-12-18T05:39:10;11.40;48.60
75719;DHT22;64340;48.534;-3.036;2022-12-18T05:41:36;11.40;48.70
75719;DHT22;64340;48.534;-3.036;2022-12-18T05:44:02;11.40;48.60
75719;DHT22;64340;48.534;-3.036;2022-12-18T05:46:27;11.40;48.70
75719;DHT22;64340;48.534;-3.036;2022-12-18T05:48:53;11.40;48.80
75719;DHT22;64340;48.534;-3.036;2022-12-18T05:51:20;11.40;48.80
75719;DHT22;64340;48.534;-3.036;2022-12-18T05:53:46;11.40;48.80
75719;DHT22;64340;48.534;-3.036;2022-12-18T05:56:16;11.40;48.80
75719;DHT22;64340;48.534;-3.036;2022-12-18T05:58:42;11.40;48.80
75719;DHT22;64340;48.534;-3.036;2022-12-18T06:01:09;11.40;48.90
75719;DHT22;64340;48.534;-3.036;2022-12-18T06:03:34;11.40;48.90
75719;DHT22;64340;48.534;-3.036;2022-12-18T06:06:00;11.40;48.90
75719;DHT22;64340;48.534;-3.036;2022-12-18T06:08:27;11.40;48.90
75719;DHT22;64340;48.534;-3.036;2022-12-18T06:10:52;11.30;48.90
75719;DHT22;64340;48.534;-3.036;2022-12-18T06:13:19;11.30;49.00
75719;DHT22;64340;48.534;-3.036;2022-12-18T06:15:45;11.30;49.00
75719;DHT22;64340;48.534;-3.036;2022-12-18T06:18:10;11.30;49.00
75719;DHT22;64340;48.534;-3.036;2022-12-18T06:20:36;11.30;49.00
75719;DHT22;64340;48.534;-3.036;2022-12-18T06:23:05;11.30;49.10
75719;DHT22;64340;48.534;-3.036;2022-12-18T06:25:30;11.20;49.00
75719;DHT22;64340;48.534;-3.036;2022-12-18T06:27:56;11.30;49.10
75719;DHT22;64340;48.534;-3.036;2022-12-18T06:30:22;11.20;49.10
75719;DHT22;64340;48.534;-3.036;2022-12-18T06:32:48;11.20;49.10
75719;DHT22;64340;48.534;-3.036;2022-12-18T06:35:13;11.20;49.10
75719;DHT22;64340;48.534;-3.036;2022-12-18T06:37:39;11.10;49.10
75719;DHT22;64340;48.534;-3.036;2022-12-18T06:40:05;11.10;49.20
75719;DHT22;64340;48.534;-3.036;2022-12-18T06:42:31;11.10;49.20
75719;DHT22;64340;48.534;-3.036;2022-12-18T06:44:57;11.10;49.20
75719;DHT22;64340;48.534;-3.036;2022-12-18T06:47:22;11.10;49.20
75719;DHT22;64340;48.534;-3.036;2022-12-18T06:49:48;11.10;49.30
75719;DHT22;64340;48.534;-3.036;2022-12-18T06:52:14;11.10;49.30
75719;DHT22;64340;48.534;-3.036;2022-12-18T06:54:39;11.10;49.30
75719;DHT22;64340;48.534;-3.036;2022-12-18T06:57:05;11.10;49.30
75719;DHT22;64340;48.534;-3.036;2022-12-18T06:59:31;11.10;49.30
75719;DHT22;64340;48.534;-3.036;2022-12-18T07:01:56;11.10;49.30
75719;DHT22;64340;48.534;-3.036;2022-12-18T07:04:22;11.10;49.40
75719;DHT22;64340;48.534;-3.036;2022-12-18T07:06:47;11.10;49.40
75719;DHT22;64340;48.534;-3.036;2022-12-18T07:09:13;11.10;49.40
75719;DHT22;64340;48.534;-3.036;2022-12-18T07:11:38;11.10;49.50
75719;DHT22;64340;48.534;-3.036;2022-12-18T07:14:04;11.10;49.40
75719;DHT22;64340;48.534;-3.036;2022-12-18T07:16:30;11.00;49.40
75719;DHT22;64340;48.534;-3.036;2022-12-18T07:18:55;11.00;49.50
75719;DHT22;64340;48.534;-3.036;2022-12-18T07:21:22;11.00;49.50
75719;DHT22;64340;48.534;-3.036;2022-12-18T07:23:48;11.00;49.50
75719;DHT22;64340;48.534;-3.036;2022-12-18T07:26:14;11.00;49.50
75719;DHT22;64340;48.534;-3.036;2022-12-18T07:28:40;11.00;49.60
75719;DHT22;64340;48.534;-3.036;2022-12-18T07:31:07;11.00;49.60
75719;DHT22;64340;48.534;-3.036;2022-12-18T07:33:33;11.00;49.60
75719;DHT22;64340;48.534;-3.036;2022-12-18T07:35:59;11.00;49.70
75719;DHT22;64340;48.534;-3.036;2022-12-18T07:38:25;11.00;49.70
75719;DHT22;64340;48.534;-3.036;2022-12-18T07:40:50;11.00;49.80
75719;DHT22;64340;48.534;-3.036;2022-12-18T07:43:16;10.90;49.80
75719;DHT22;64340;48.534;-3.036;2022-12-18T07:45:42;10.90;49.80
75719;DHT22;64340;48.534;-3.036;2022-12-18T07:48:08;10.90;49.70
75719;DHT22;64340;48.534;-3.036;2022-12-18T07:50:33;10.90;49.80
75719;DHT22;64340;48.534;-3.036;2022-12-18T07:52:59;10.90;49.90
75719;DHT22;64340;48.534;-3.036;2022-12-18T07:55:29;10.90;49.90
75719;DHT22;64340;48.534;-3.036;2022-12-18T07:57:55;10.90;49.90
75719;DHT22;64340;48.534;-3.036;2022-12-18T08:00:20;10.90;50.00
75719;DHT22;64340;48.534;-3.036;2022-12-18T08:02:46;10.90;50.00
75719;DHT22;64340;48.534;-3.036;2022-12-18T08:05:12;10.90;50.10
75719;DHT22;64340;48.534;-3.036;2022-12-18T08:07:38;11.00;50.00
75719;DHT22;64340;48.534;-3.036;2022-12-18T08:10:05;11.00;50.00
75719;DHT22;64340;48.534;-3.036;2022-12-18T08:12:30;11.10;50.10
75719;DHT22;64340;48.534;-3.036;2022-12-18T08:14:56;11.10;50.30
75719;DHT22;64340;48.534;-3.036;2022-12-18T08:17:21;11.10;50.50
75719;DHT22;64340;48.534;-3.036;2022-12-18T08:19:47;11.10;51.00
75719;DHT22;64340;48.534;-3.036;2022-12-18T08:22:13;11.10;50.90
75719;DHT22;64340;48.534;-3.036;2022-12-18T08:24:38;11.20;51.60
75719;DHT22;64340;48.534;-3.036;2022-12-18T08:27:04;11.30;53.60
75719;DHT22;64340;48.534;-3.036;2022-12-18T08:29:29;10.20;56.80
75719;DHT22;64340;48.534;-3.036;2022-12-18T08:31:55;9.40;59.00
75719;DHT22;64340;48.534;-3.036;2022-12-18T08:34:21;9.70;58.20
75719;DHT22;64340;48.534;-3.036;2022-12-18T08:36:46;10.40;55.80
75719;DHT22;64340;48.534;-3.036;2022-12-18T08:39:12;10.80;54.70
75719;DHT22;64340;48.534;-3.036;2022-12-18T08:41:38;11.00;54.20
75719;DHT22;64340;48.534;-3.036;2022-12-18T08:44:03;11.20;53.70
75719;DHT22;64340;48.534;-3.036;2022-12-18T08:46:48;11.30;53.30
75719;DHT22;64340;48.534;-3.036;2022-12-18T08:49:13;11.40;53.30
75719;DHT22;64340;48.534;-3.036;2022-12-18T08:51:39;11.40;53.70
75719;DHT22;64340;48.534;-3.036;2022-12-18T08:54:05;11.50;53.80
75719;DHT22;64340;48.534;-3.036;2022-12-18T08:56:31;11.40;53.70
75719;DHT22;64340;48.534;-3.036;2022-12-18T08:58:57;11.40;54.30
75719;DHT22;64340;48.534;-3.036;2022-12-18T09:01:23;11.40;54.70
75719;DHT22;64340;48.534;-3.036;2022-12-18T09:03:49;11.40;55.10
75719;DHT22;64340;48.534;-3.036;2022-12-18T09:06:19;11.50;54.40
75719;DHT22;64340;48.534;-3.036;2022-12-18T09:08:45;11.50;54.60
75719;DHT22;64340;48.534;-3.036;2022-12-18T09:11:14;11.50;54.00
75719;DHT22;64340;48.534;-3.036;2022-12-18T09:13:40;11.50;54.20
75719;DHT22;64340;48.534;-3.036;2022-12-18T09:16:06;11.60;54.60
75719;DHT22;64340;48.534;-3.036;2022-12-18T09:18:32;11.70;53.50
75719;DHT22;64340;48.534;-3.036;2022-12-18T09:20:57;11.70;54.50
75719;DHT22;64340;48.534;-3.036;2022-12-18T09:23:23;11.70;54.00
75719;DHT22;64340;48.534;-3.036;2022-12-18T09:25:48;11.70;54.70
75719;DHT22;64340;48.534;-3.036;2022-12-18T09:28:16;11.90;54.80
75719;DHT22;64340;48.534;-3.036;2022-12-18T09:30:43;11.90;54.50
75719;DHT22;64340;48.534;-3.036;2022-12-18T09:33:08;12.00;55.00
75719;DHT22;64340;48.534;-3.036;2022-12-18T09:35:37;12.10;55.30
75719;DHT22;64340;48.534;-3.036;2022-12-18T09:38:04;12.10;55.40
75719;DHT22;64340;48.534;-3.036;2022-12-18T09:40:32;12.20;56.50
75719;DHT22;64340;48.534;-3.036;2022-12-18T09:43:00;12.20;56.90
75719;DHT22;64340;48.534;-3.036;2022-12-18T09:45:28;12.10;57.70
75719;DHT22;64340;48.534;-3.036;2022-12-18T09:47:56;12.10;57.50
75719;DHT22;64340;48.534;-3.036;2022-12-18T09:50:24;12.30;57.90
75719;DHT22;64340;48.534;-3.036;2022-12-18T09:52:54;12.40;57.40
75719;DHT22;64340;48.534;-3.036;2022-12-18T09:55:24;12.50;57.60
75719;DHT22;64340;48.534;-3.036;2022-12-18T09:57:52;12.60;57.30
75719;DHT22;64340;48.534;-3.036;2022-12-18T10:00:19;12.70;56.80
75719;DHT22;64340;48.534;-3.036;2022-12-18T10:02:46;12.70;57.80
75719;DHT22;64340;48.534;-3.036;2022-12-18T10:13:02;12.90;58.40
75719;DHT22;64340;48.534;-3.036;2022-12-18T10:15:45;12.90;59.00
75719;DHT22;64340;48.534;-3.036;2022-12-18T10:20:48;12.90;60.70
75719;DHT22;64340;48.534;-3.036;2022-12-18T10:23:17;12.90;60.10
75719;DHT22;64340;48.534;-3.036;2022-12-18T10:26:03;12.80;61.50
75719;DHT22;64340;48.534;-3.036;2022-12-18T10:28:30;12.90;62.00
75719;DHT22;64340;48.534;-3.036;2022-12-18T10:30:56;13.00;60.80
75719;DHT22;64340;48.534;-3.036;2022-12-18T10:33:23;13.20;59.60
75719;DHT22;64340;48.534;-3.036;2022-12-18T10:35:49;13.20;59.50
75719;DHT22;64340;48.534;-3.036;2022-12-18T10:43:33;13.10;59.80
75719;DHT22;64340;48.534;-3.036;2022-12-18T10:48:24;13.30;59.20
75719;DHT22;64340;48.534;-3.036;2022-12-18T10:50:50;13.30;59.10
75719;DHT22;64340;48.534;-3.036;2022-12-18T10:53:21;13.50;58.60
75719;DHT22;64340;48.534;-3.036;2022-12-18T10:55:47;13.50;58.20
75719;DHT22;64340;48.534;-3.036;2022-12-18T10:58:24;13.70;58.20
75719;DHT22;64340;48.534;-3.036;2022-12-18T11:01:07;13.90;57.90
75719;DHT22;64340;48.534;-3.036;2022-12-18T11:03:35;13.90;58.00
75719;DHT22;64340;48.534;-3.036;2022-12-18T11:06:05;13.90;57.80
75719;DHT22;64340;48.534;-3.036;2022-12-18T11:08:31;13.90;57.70
75719;DHT22;64340;48.534;-3.036;2022-12-18T11:10:56;13.90;57.40
75719;DHT22;64340;48.534;-3.036;2022-12-18T11:13:23;13.90;57.30
75719;DHT22;64340;48.534;-3.036;2022-12-18T11:15:51;14.00;57.60
75719;DHT22;64340;48.534;-3.036;2022-12-18T11:18:22;14.10;57.20
75719;DHT22;64340;48.534;-3.036;2022-12-18T11:20:50;14.10;57.20
75719;DHT22;64340;48.534;-3.036;2022-12-18T11:23:16;14.10;57.10
75719;DHT22;64340;48.534;-3.036;2022-12-18T11:25:41;14.10;57.00
75719;DHT22;64340;48.534;-3.036;2022-12-18T11:28:35;14.20;56.80
75719;DHT22;64340;48.534;-3.036;2022-12-18T11:31:09;14.30;56.60
75719;DHT22;64340;48.534;-3.036;2022-12-18T11:33:37;14.40;56.50
75719;DHT22;64340;48.534;-3.036;2022-12-18T11:36:03;14.40;56.50
75719;DHT22;64340;48.534;-3.036;2022-12-18T11:38:31;14.50;56.50
75719;DHT22;64340;48.534;-3.036;2022-12-18T11:43:39;14.60;56.20
75719;DHT22;64340;48.534;-3.036;2022-12-18T11:46:19;14.70;56.30
75719;DHT22;64340;48.534;-3.036;2022-12-18T11:48:49;14.70;56.30
75719;DHT22;64340;48.534;-3.036;2022-12-18T11:51:20;14.70;56.90
75719;DHT22;64340;48.534;-3.036;2022-12-18T11:53:49;14.70;56.50
75719;DHT22;64340;48.534;-3.036;2022-12-18T11:58:47;14.60;56.60
75719;DHT22;64340;48.534;-3.036;2022-12-18T12:01:30;14.70;56.50
75719;DHT22;64340;48.534;-3.036;2022-12-18T12:06:39;14.90;56.10
75719;DHT22;64340;48.534;-3.036;2022-12-18T12:09:13;15.00;55.90
75719;DHT22;64340;48.534;-3.036;2022-12-18T12:14:30;15.00;56.50
75719;DHT22;64340;48.534;-3.036;2022-12-18T12:16:58;15.20;56.10
75719;DHT22;64340;48.534;-3.036;2022-12-18T12:37:29;15.60;56.80
75719;DHT22;64340;48.534;-3.036;2022-12-18T12:39:58;15.60;56.70
75719;DHT22;64340;48.534;-3.036;2022-12-18T12:45:40;15.70;56.90
75719;DHT22;64340;48.534;-3.036;2022-12-18T12:48:07;15.80;56.50
75719;DHT22;64340;48.534;-3.036;2022-12-18T12:50:39;15.80;57.10
75719;DHT22;64340;48.534;-3.036;2022-12-18T12:53:06;15.80;57.10
75719;DHT22;64340;48.534;-3.036;2022-12-18T12:55:32;15.90;57.30
75719;DHT22;64340;48.534;-3.036;2022-12-18T12:58:06;15.80;57.50
75719;DHT22;64340;48.534;-3.036;2022-12-18T13:00:36;15.80;57.60
75719;DHT22;64340;48.534;-3.036;2022-12-18T13:03:11;15.80;57.90
75719;DHT22;64340;48.534;-3.036;2022-12-18T13:05:51;15.80;57.90
75719;DHT22;64340;48.534;-3.036;2022-12-18T13:08:26;15.80;57.80
75719;DHT22;64340;48.534;-3.036;2022-12-18T13:10:53;15.70;57.70
75719;DHT22;64340;48.534;-3.036;2022-12-18T13:13:55;15.60;57.90
75719;DHT22;64340;48.534;-3.036;2022-12-18T13:16:24;15.60;57.90
75719;DHT22;64340;48.534;-3.036;2022-12-18T13:18:57;15.60;58.00
75719;DHT22;64340;48.534;-3.036;2022-12-18T13:21:30;15.60;58.00
75719;DHT22;64340;48.534;-3.036;2022-12-18T13:24:13;15.60;57.90
75719;DHT22;64340;48.534;-3.036;2022-12-18T13:26:39;15.60;58.20
75719;DHT22;64340;48.534;-3.036;2022-12-18T13:29:05;15.60;58.20
75719;DHT22;64340;48.534;-3.036;2022-12-18T13:34:21;15.60;57.90
75719;DHT22;64340;48.534;-3.036;2022-12-18T13:36:47;15.60;57.70
75719;DHT22;64340;48.534;-3.036;2022-12-18T13:41:38;15.60;57.90
75719;DHT22;64340;48.534;-3.036;2022-12-18T13:46:50;15.60;57.50
75719;DHT22;64340;48.534;-3.036;2022-12-18T13:52:00;15.60;58.00
75719;DHT22;64340;48.534;-3.036;2022-12-18T13:54:35;15.60;57.80
75719;DHT22;64340;48.534;-3.036;2022-12-18T13:57:01;15.70;57.60
75719;DHT22;64340;48.534;-3.036;2022-12-18T13:59:34;15.70;57.30
75719;DHT22;64340;48.534;-3.036;2022-12-18T14:02:04;15.80;57.30
75719;DHT22;64340;48.534;-3.036;2022-12-18T14:04:35;15.80;57.60
75719;DHT22;64340;48.534;-3.036;2022-12-18T14:09:36;16.00;57.10
75719;DHT22;64340;48.534;-3.036;2022-12-18T14:12:02;16.00;57.10
75719;DHT22;64340;48.534;-3.036;2022-12-18T14:14:48;16.00;57.10
75719;DHT22;64340;48.534;-3.036;2022-12-18T14:17:18;16.00;57.10
75719;DHT22;64340;48.534;-3.036;2022-12-18T14:19:46;16.10;57.00
75719;DHT22;64340;48.534;-3.036;2022-12-18T14:22:20;16.10;56.90
75719;DHT22;64340;48.534;-3.036;2022-12-18T14:24:46;16.20;56.70
75719;DHT22;64340;48.534;-3.036;2022-12-18T14:27:23;16.40;56.60
75719;DHT22;64340;48.534;-3.036;2022-12-18T14:29:49;16.40;57.10
75719;DHT22;64340;48.534;-3.036;2022-12-18T14:32:18;16.40;56.70
75719;DHT22;64340;48.534;-3.036;2022-12-18T14:34:45;16.40;56.80
75719;DHT22;64340;48.534;-3.036;2022-12-18T14:37:12;16.40;56.80
75719;DHT22;64340;48.534;-3.036;2022-12-18T14:39:39;16.40;56.80
75719;DHT22;64340;48.534;-3.036;2022-12-18T14:42:05;16.40;56.80
75719;DHT22;64340;48.534;-3.036;2022-12-18T14:44:30;16.40;56.90
75719;DHT22;64340;48.534;-3.036;2022-12-18T14:46:56;16.40;56.90
75719;DHT22;64340;48.534;-3.036;2022-12-18T14:49:23;16.40;56.80
75719;DHT22;64340;48.534;-3.036;2022-12-18T14:51:55;16.40;56.90
75719;DHT22;64340;48.534;-3.036;2022-12-18T14:54:21;16.40;56.90
75719;DHT22;64340;48.534;-3.036;2022-12-18T14:56:48;16.40;56.90
75719;DHT22;64340;48.534;-3.036;2022-12-18T14:59:16;16.40;56.90
75719;DHT22;64340;48.534;-3.036;2022-12-18T15:01:53;16.40;56.80
75719;DHT22;64340;48.534;-3.036;2022-12-18T15:07:06;16.40;56.80
75719;DHT22;64340;48.534;-3.036;2022-12-18T15:09:33;16.40;56.70
75719;DHT22;64340;48.534;-3.036;2022-12-18T15:11:59;16.40;56.70
75719;DHT22;64340;48.534;-3.036;2022-12-18T15:14:32;16.40;56.80
75719;DHT22;64340;48.534;-3.036;2022-12-18T15:17:00;16.40;57.00
75719;DHT22;64340;48.534;-3.036;2022-12-18T15:19:34;16.30;57.10
75719;DHT22;64340;48.534;-3.036;2022-12-18T15:22:01;16.20;57.10
75719;DHT22;64340;48.534;-3.036;2022-12-18T15:24:30;16.20;57.10
75719;DHT22;64340;48.534;-3.036;2022-12-18T15:26:56;16.20;57.20
75719;DHT22;64340;48.534;-3.036;2022-12-18T15:29:23;16.20;57.30
75719;DHT22;64340;48.534;-3.036;2022-12-18T15:32:00;16.20;57.40
75719;DHT22;64340;48.534;-3.036;2022-12-18T15:34:27;16.10;57.40
75719;DHT22;64340;48.534;-3.036;2022-12-18T15:36:59;16.10;57.50
75719;DHT22;64340;48.534;-3.036;2022-12-18T15:39:26;16.10;57.60
75719;DHT22;64340;48.534;-3.036;2022-12-18T15:41:52;16.10;57.60
75719;DHT22;64340;48.534;-3.036;2022-12-18T15:44:36;16.00;57.50
75719;DHT22;64340;48.534;-3.036;2022-12-18T15:47:02;16.00;57.60
75719;DHT22;64340;48.534;-3.036;2022-12-18T15:49:29;16.10;57.70
75719;DHT22;64340;48.534;-3.036;2022-12-18T15:51:56;16.00;57.70
75719;DHT22;64340;48.534;-3.036;2022-12-18T15:54:22;16.00;57.70
75719;DHT22;64340;48.534;-3.036;2022-12-18T15:57:11;16.00;57.80
75719;DHT22;64340;48.534;-3.036;2022-12-18T15:59:50;16.00;57.80
75719;DHT22;64340;48.534;-3.036;2022-12-18T16:02:17;16.10;57.70
75719;DHT22;64340;48.534;-3.036;2022-12-18T16:04:43;16.00;57.80
75719;DHT22;64340;48.534;-3.036;2022-12-18T16:07:08;16.00;58.00
75719;DHT22;64340;48.534;-3.036;2022-12-18T16:09:34;16.00;58.00
75719;DHT22;64340;48.534;-3.036;2022-12-18T16:12:00;15.90;58.10
75719;DHT22;64340;48.534;-3.036;2022-12-18T16:14:27;16.00;58.00
75719;DHT22;64340;48.534;-3.036;2022-12-18T16:16:53;15.90;58.10
75719;DHT22;64340;48.534;-3.036;2022-12-18T16:19:19;15.90;58.00
75719;DHT22;64340;48.534;-3.036;2022-12-18T16:21:46;16.00;58.00
75719;DHT22;64340;48.534;-3.036;2022-12-18T16:24:13;16.00;58.00
75719;DHT22;64340;48.534;-3.036;2022-12-18T16:26:40;16.00;58.00
75719;DHT22;64340;48.534;-3.036;2022-12-18T16:29:07;16.00;57.90
75719;DHT22;64340;48.534;-3.036;2022-12-18T16:31:33;16.00;57.90
75719;DHT22;64340;48.534;-3.036;2022-12-18T16:34:12;16.00;57.90
75719;DHT22;64340;48.534;-3.036;2022-12-18T16:36:39;16.00;57.90
75719;DHT22;64340;48.534;-3.036;2022-12-18T16:39:05;16.10;57.90
75719;DHT22;64340;48.534;-3.036;2022-12-18T16:41:31;16.10;57.90
75719;DHT22;64340;48.534;-3.036;2022-12-18T16:43:57;16.10;57.80